createdAt,value
2019-05-13T00:05:06.954Z,34
2019-05-13T00:20:04.246Z,34
2019-05-13T00:35:05.635Z,34
2019-05-13T00:50:04.588Z,34
2019-05-13T01:05:04.544Z,34
2019-05-13T01:20:04.905Z,34
2019-05-13T01:35:04.842Z,34
2019-05-13T01:50:05.546Z,34
2019-05-13T02:05:04.207Z,34
2019-05-13T02:20:04.816Z,34
2019-05-13T02:35:05.207Z,34
2019-05-13T02:50:05.501Z,34
2019-05-13T03:05:05.713Z,34
2019-05-13T03:20:04.604Z,34
2019-05-13T03:35:08.578Z,34
2019-05-13T03:50:06.442Z,34
2019-05-13T04:05:04.543Z,34
2019-05-13T04:20:04.132Z,34
2019-05-13T04:35:04.523Z,34
2019-05-13T04:50:04.553Z,34
2019-05-13T05:05:04.578Z,34
2019-05-13T05:20:05.453Z,34
2019-05-13T05:35:04.004Z,34
2019-05-13T05:50:05.538Z,34
2019-05-13T06:05:07.670Z,34
2019-05-13T06:20:06.598Z,34
2019-05-13T06:35:08.432Z,34
2019-05-13T06:50:06.390Z,34
2019-05-13T07:05:03.927Z,34
2019-05-13T07:20:06.247Z,34
2019-05-13T07:35:04.632Z,34
2019-05-13T07:50:05.225Z,34
2019-05-13T08:05:04.222Z,33
2019-05-13T08:20:05.944Z,33
2019-05-13T08:35:09.412Z,33
2019-05-13T08:50:07.199Z,33
2019-05-13T09:05:03.474Z,33
2019-05-13T09:20:05.077Z,32
2019-05-13T09:35:03.573Z,32
2019-05-13T09:50:25.506Z,32
2019-05-13T10:05:03.278Z,31
2019-05-13T10:20:04.118Z,31
2019-05-13T10:35:04.084Z,30
2019-05-13T10:50:03.740Z,30
2019-05-13T11:05:05.137Z,30
2019-05-13T11:20:04.086Z,30
2019-05-13T11:35:03.648Z,29
2019-05-13T11:50:04.689Z,29
2019-05-13T12:05:05.263Z,29
2019-05-13T12:20:05.109Z,28
2019-05-13T12:35:05.329Z,28
2019-05-13T12:50:07.624Z,27
2019-05-13T13:05:19.849Z,27
2019-05-13T13:20:14.595Z,27
2019-05-13T13:35:09.410Z,27
2019-05-13T13:50:04.494Z,27
2019-05-13T14:05:05.989Z,27
2019-05-13T14:20:03.989Z,26
2019-05-13T14:35:03.407Z,26
2019-05-13T14:50:04.384Z,26
2019-05-13T15:05:03.412Z,26
2019-05-13T15:20:05.973Z,26
2019-05-13T15:35:03.395Z,25
2019-05-13T15:50:04.389Z,25
2019-05-13T16:05:05.114Z,25
2019-05-13T16:20:05.310Z,25
2019-05-13T16:35:03.796Z,24
2019-05-13T16:50:05.556Z,24
2019-05-13T17:05:05.508Z,24
2019-05-13T17:20:04.425Z,24
2019-05-13T17:35:05.405Z,24
2019-05-13T17:50:05.822Z,24
2019-05-13T18:05:06.294Z,24
2019-05-13T18:20:04.093Z,24
2019-05-13T18:35:03.747Z,25
2019-05-13T18:50:06.655Z,25
2019-05-13T19:05:03.514Z,26
2019-05-13T19:20:04.057Z,26
2019-05-13T19:35:03.151Z,27
2019-05-13T19:50:04.096Z,27
2019-05-13T20:05:05.015Z,28
2019-05-13T20:20:04.295Z,28
2019-05-13T20:35:03.584Z,29
2019-05-13T20:50:04.279Z,29
2019-05-13T21:05:04.543Z,30
2019-05-13T21:20:22.371Z,29
2019-05-13T21:35:03.307Z,29
2019-05-13T21:50:04.416Z,29
2019-05-13T22:05:03.586Z,29
2019-05-13T22:20:04.320Z,28
2019-05-13T22:35:03.398Z,28
2019-05-13T22:50:04.527Z,27
2019-05-13T23:05:04.268Z,27
2019-05-13T23:20:03.560Z,27
2019-05-13T23:35:03.745Z,27
2019-05-13T23:50:03.803Z,27
